createdAt,value
2017-11-23T00:01:09.598Z,8.30
2017-11-23T00:03:37.873Z,8.53
2017-11-23T00:06:06.139Z,8.27
2017-11-23T00:08:34.409Z,8.90
2017-11-23T00:11:02.835Z,8.07
2017-11-23T00:13:31.123Z,8.70
2017-11-23T00:15:59.388Z,7.93
2017-11-23T00:18:27.774Z,7.80
2017-11-23T00:20:56.058Z,8.13
2017-11-23T00:23:25.132Z,7.30
2017-11-23T00:25:53.511Z,8.60
2017-11-23T00:28:21.789Z,6.63
2017-11-23T00:30:50.073Z,7.40
2017-11-23T00:33:18.321Z,6.67
2017-11-23T00:35:46.634Z,8.57
2017-11-23T00:38:14.900Z,7.00
2017-11-23T00:40:43.182Z,6.07
2017-11-23T00:43:11.461Z,7.00
2017-11-23T00:45:39.750Z,7.43
2017-11-23T00:48:08.015Z,6.20
2017-11-23T00:50:36.381Z,7.83
2017-11-23T00:53:04.651Z,6.80
2017-11-23T00:55:32.962Z,7.37
2017-11-23T00:58:01.214Z,6.77
2017-11-23T01:00:29.604Z,6.80
2017-11-23T01:02:58.004Z,7.33
2017-11-23T01:05:27.803Z,6.73
2017-11-23T01:07:56.072Z,6.30
2017-11-23T01:10:24.342Z,7.27
2017-11-23T01:12:52.602Z,6.77
2017-11-23T01:15:20.915Z,6.27
2017-11-23T01:17:49.196Z,6.67
2017-11-23T01:20:17.563Z,5.90
2017-11-23T01:22:45.862Z,6.80
2017-11-23T01:25:15.638Z,6.30
2017-11-23T01:27:43.897Z,7.03
2017-11-23T01:30:12.200Z,6.07
2017-11-23T01:32:40.449Z,6.20
2017-11-23T01:35:08.730Z,7.77
2017-11-23T01:37:37.049Z,6.80
2017-11-23T01:40:05.362Z,7.60
2017-11-23T01:42:34.384Z,6.20
2017-11-23T01:45:02.674Z,5.23
2017-11-23T01:47:30.920Z,6.40
2017-11-23T01:49:59.192Z,6.10
2017-11-23T01:52:28.213Z,5.70
2017-11-23T01:54:56.488Z,6.60
2017-11-23T01:57:24.897Z,5.37
2017-11-23T01:59:53.162Z,5.37
2017-11-23T02:02:21.445Z,5.90
2017-11-23T02:04:50.238Z,5.83
2017-11-23T02:07:18.485Z,6.27
2017-11-23T02:09:46.738Z,5.57
2017-11-23T02:12:16.109Z,6.30
2017-11-23T02:14:45.158Z,4.77
2017-11-23T02:17:13.438Z,4.63
2017-11-23T02:19:41.688Z,6.03
2017-11-23T02:22:10.713Z,5.87
2017-11-23T02:24:39.016Z,6.70
2017-11-23T02:27:07.295Z,5.30
2017-11-23T02:29:35.537Z,4.17
2017-11-23T02:32:03.818Z,4.83
2017-11-23T02:34:32.068Z,5.33
2017-11-23T02:37:01.120Z,4.50
2017-11-23T02:39:29.364Z,5.37
2017-11-23T02:41:57.629Z,4.50
2017-11-23T02:44:25.881Z,5.77
2017-11-23T02:46:54.943Z,5.37
2017-11-23T02:49:23.188Z,4.17
2017-11-23T02:51:51.462Z,4.23
2017-11-23T02:54:19.727Z,4.37
2017-11-23T02:56:48.873Z,3.90
2017-11-23T02:59:17.109Z,3.93
2017-11-23T03:01:45.449Z,4.60
2017-11-23T03:04:13.701Z,3.43
2017-11-23T03:06:42.081Z,4.53
2017-11-23T03:09:10.325Z,4.53
2017-11-23T03:11:38.637Z,3.50
2017-11-23T03:14:06.889Z,4.17
2017-11-23T03:16:35.298Z,3.70
2017-11-23T03:19:03.533Z,3.77
2017-11-23T03:21:31.834Z,4.03
2017-11-23T03:24:00.114Z,2.93
2017-11-23T03:26:28.385Z,3.67
2017-11-23T03:28:56.631Z,3.63
2017-11-23T03:31:24.941Z,3.60
2017-11-23T03:33:53.191Z,3.83
2017-11-23T03:36:21.460Z,3.10
2017-11-23T03:38:49.709Z,3.80
2017-11-23T03:41:17.980Z,3.50
2017-11-23T03:43:46.266Z,3.30
2017-11-23T03:46:14.605Z,3.97
2017-11-23T03:48:42.855Z,3.47
2017-11-23T03:51:11.170Z,3.00
2017-11-23T03:53:39.418Z,3.90
2017-11-23T03:56:07.740Z,3.10
2017-11-23T03:58:36.206Z,2.93
2017-11-23T04:01:04.465Z,3.30
2017-11-23T04:03:32.713Z,4.20
2017-11-23T04:06:01.021Z,3.33
2017-11-23T04:08:29.301Z,3.20
2017-11-23T04:10:57.549Z,3.03
2017-11-23T04:13:25.853Z,3.80
2017-11-23T04:15:54.102Z,3.10
2017-11-23T04:18:22.386Z,3.70
2017-11-23T04:20:50.650Z,3.47
2017-11-23T04:23:19.680Z,3.27
2017-11-23T04:25:47.977Z,2.87
2017-11-23T04:28:16.245Z,3.57
2017-11-23T04:30:44.491Z,3.13
2017-11-23T04:33:12.798Z,4.33
2017-11-23T04:35:41.045Z,4.37
2017-11-23T04:38:09.341Z,3.43
2017-11-23T04:40:37.588Z,3.60
2017-11-23T04:43:05.866Z,3.90
2017-11-23T04:45:34.173Z,3.00
2017-11-23T04:48:02.451Z,3.10
2017-11-23T04:50:30.710Z,4.37
2017-11-23T04:52:59.000Z,3.40
2017-11-23T04:55:27.261Z,3.53
2017-11-23T04:57:55.535Z,3.03
2017-11-23T05:00:23.949Z,4.03
2017-11-23T05:02:52.211Z,4.27
2017-11-23T05:05:20.453Z,3.70
2017-11-23T05:07:48.720Z,3.67
2017-11-23T05:10:17.741Z,4.77
2017-11-23T05:12:46.005Z,3.70
2017-11-23T05:17:49.633Z,4.67
2017-11-23T05:20:17.922Z,4.60
2017-11-23T05:22:46.189Z,4.67
2017-11-23T05:25:14.445Z,4.07
2017-11-23T05:27:43.590Z,4.20
2017-11-23T05:30:13.373Z,3.90
2017-11-23T05:32:42.471Z,4.80
2017-11-23T05:35:10.781Z,4.70
2017-11-23T05:37:39.052Z,4.10
2017-11-23T05:40:07.336Z,3.90
2017-11-23T05:42:35.713Z,3.43
2017-11-23T05:45:03.982Z,3.87
2017-11-23T05:47:32.244Z,3.83
2017-11-23T05:50:00.498Z,2.50
2017-11-23T05:52:29.640Z,3.43
2017-11-23T05:54:57.881Z,3.20
2017-11-23T05:57:26.231Z,3.40
2017-11-23T05:59:56.011Z,3.53
2017-11-23T06:02:24.253Z,3.90
2017-11-23T06:04:52.534Z,3.30
2017-11-23T06:07:20.781Z,3.90
2017-11-23T06:09:49.840Z,3.67
2017-11-23T06:12:18.076Z,3.30
2017-11-23T06:14:46.365Z,4.33
2017-11-23T06:17:14.616Z,3.33
2017-11-23T06:19:43.047Z,4.40
2017-11-23T06:22:11.332Z,3.77
2017-11-23T06:24:39.599Z,3.60
2017-11-23T06:27:07.850Z,3.80
2017-11-23T06:29:36.127Z,3.80
2017-11-23T06:32:04.386Z,4.00
2017-11-23T06:34:32.682Z,3.50
2017-11-23T06:37:00.927Z,3.63
2017-11-23T06:39:29.981Z,4.57
2017-11-23T06:41:58.233Z,3.77
2017-11-23T06:44:26.493Z,3.60
2017-11-23T06:46:54.902Z,3.77
2017-11-23T06:49:23.166Z,4.13
2017-11-23T06:51:51.421Z,4.30
2017-11-23T06:54:19.791Z,4.10
2017-11-23T06:56:48.812Z,4.40
2017-11-23T06:59:17.089Z,3.57
2017-11-23T07:01:45.335Z,3.20
2017-11-23T07:04:14.494Z,3.60
2017-11-23T07:06:42.757Z,3.70
2017-11-23T07:09:11.024Z,4.07
2017-11-23T07:11:39.272Z,4.70
2017-11-23T07:14:07.558Z,3.90
2017-11-23T07:16:35.817Z,4.83
2017-11-23T07:19:04.862Z,4.23
2017-11-23T07:21:33.177Z,5.60
2017-11-23T07:24:02.222Z,6.83
2017-11-23T07:26:30.526Z,5.00
2017-11-23T07:29:00.076Z,8.20
2017-11-23T07:31:28.607Z,10.63
2017-11-23T07:33:56.981Z,4.83
2017-11-23T07:36:25.232Z,4.57
2017-11-23T07:38:54.370Z,3.27
2017-11-23T07:41:22.625Z,3.60
2017-11-23T07:43:50.896Z,3.97
2017-11-23T07:46:19.201Z,4.17
2017-11-23T07:48:47.586Z,3.50
2017-11-23T07:51:15.974Z,6.00
2017-11-23T07:53:44.234Z,3.80
2017-11-23T07:56:13.426Z,3.97
2017-11-23T07:58:41.694Z,4.00
2017-11-23T08:01:09.951Z,3.40
2017-11-23T08:03:38.212Z,4.37
2017-11-23T08:06:06.461Z,3.43
2017-11-23T08:08:35.491Z,2.60
2017-11-23T08:11:03.758Z,2.83
2017-11-23T08:13:32.014Z,2.83
2017-11-23T08:16:01.079Z,4.17
2017-11-23T08:18:29.328Z,9.03
2017-11-23T08:20:57.593Z,3.13
2017-11-23T08:23:25.903Z,3.13
2017-11-23T08:25:54.203Z,4.13
2017-11-23T08:28:22.433Z,4.93
2017-11-23T08:30:50.710Z,3.33
2017-11-23T08:33:19.009Z,3.33
2017-11-23T08:35:47.354Z,2.90
2017-11-23T08:38:15.670Z,3.80
2017-11-23T08:40:43.944Z,3.30
2017-11-23T08:43:12.218Z,3.10
2017-11-23T08:45:40.556Z,3.80
2017-11-23T08:48:08.827Z,3.40
2017-11-23T08:50:37.859Z,3.77
2017-11-23T08:53:06.109Z,4.00
2017-11-23T08:55:34.384Z,2.30
2017-11-23T08:58:02.665Z,2.93
2017-11-23T09:00:30.978Z,2.90
2017-11-23T09:03:13.821Z,2.60
2017-11-23T09:05:44.921Z,3.07
2017-11-23T09:08:13.170Z,3.50
2017-11-23T09:10:41.477Z,4.13
2017-11-23T09:13:09.729Z,3.60
2017-11-23T09:15:38.000Z,4.10
2017-11-23T09:18:06.249Z,3.67
2017-11-23T09:20:34.526Z,2.80
2017-11-23T09:23:02.802Z,3.10
2017-11-23T09:25:31.167Z,3.73
2017-11-23T09:27:59.435Z,2.93
2017-11-23T09:30:27.713Z,3.50
2017-11-23T09:32:55.987Z,2.90
2017-11-23T09:35:24.368Z,3.77
2017-11-23T09:37:52.644Z,3.17
2017-11-23T09:40:21.017Z,3.80
2017-11-23T09:42:49.276Z,2.87
2017-11-23T09:45:17.549Z,3.00
2017-11-23T09:47:45.802Z,2.73
2017-11-23T09:50:15.059Z,3.10
2017-11-23T09:52:43.301Z,3.33
2017-11-23T09:55:11.587Z,2.90
2017-11-23T09:57:39.881Z,2.53
2017-11-23T10:00:08.158Z,2.70
2017-11-23T10:02:36.427Z,3.50
2017-11-23T10:05:04.701Z,2.70
2017-11-23T10:07:32.960Z,3.07
2017-11-23T10:10:01.395Z,3.00
2017-11-23T10:12:29.649Z,2.53
2017-11-23T10:14:58.023Z,2.70
2017-11-23T10:17:26.285Z,2.60
2017-11-23T10:19:54.566Z,2.37
2017-11-23T10:22:22.853Z,2.30
2017-11-23T10:24:51.145Z,2.53
2017-11-23T10:27:19.393Z,2.73
2017-11-23T10:29:47.669Z,2.87
2017-11-23T10:32:15.931Z,2.20
2017-11-23T10:34:44.206Z,3.10
2017-11-23T10:37:13.238Z,3.30
2017-11-23T10:39:41.517Z,2.83
2017-11-23T10:42:09.774Z,2.13
2017-11-23T10:44:38.173Z,2.50
2017-11-23T10:47:06.425Z,2.07
2017-11-23T10:49:34.701Z,2.93
2017-11-23T10:52:02.953Z,2.50
2017-11-23T10:54:31.232Z,3.03
2017-11-23T10:56:59.512Z,2.20
2017-11-23T10:59:27.829Z,2.70
2017-11-23T11:01:56.091Z,2.83
2017-11-23T11:04:24.365Z,3.00
2017-11-23T11:06:52.666Z,3.30
2017-11-23T11:09:20.949Z,2.60
2017-11-23T11:11:49.363Z,2.83
2017-11-23T11:14:18.373Z,2.40
2017-11-23T11:16:46.657Z,2.50
2017-11-23T11:19:14.976Z,2.17
2017-11-23T11:21:43.341Z,3.17
2017-11-23T11:24:11.599Z,2.37
2017-11-23T11:26:39.877Z,2.57
2017-11-23T11:29:08.129Z,2.63
2017-11-23T11:31:37.274Z,3.10
2017-11-23T11:34:05.536Z,3.50
2017-11-23T11:36:33.941Z,3.90
2017-11-23T11:39:02.184Z,5.97
2017-11-23T11:41:30.461Z,4.87
2017-11-23T11:43:58.742Z,3.83
2017-11-23T11:46:27.021Z,3.27
2017-11-23T11:48:55.274Z,3.40
2017-11-23T11:51:23.549Z,2.80
2017-11-23T11:53:51.813Z,2.73
2017-11-23T11:56:20.854Z,2.60
2017-11-23T11:58:49.113Z,2.80
2017-11-23T12:01:17.394Z,3.90
2017-11-23T12:03:45.647Z,3.50
2017-11-23T12:06:14.792Z,3.73
2017-11-23T12:08:43.177Z,4.77
2017-11-23T12:11:11.437Z,3.30
2017-11-23T12:13:39.693Z,2.67
2017-11-23T12:16:19.996Z,3.23
2017-11-23T12:19:00.133Z,2.87
2017-11-23T12:21:40.316Z,3.10
2017-11-23T12:24:11.426Z,3.00
2017-11-23T12:26:39.726Z,3.10
2017-11-23T12:29:19.771Z,3.20
2017-11-23T12:31:48.041Z,6.00
2017-11-23T12:34:16.310Z,3.33
2017-11-23T12:36:44.592Z,2.40
2017-11-23T12:39:12.850Z,2.70
2017-11-23T12:41:41.156Z,2.70
2017-11-23T12:44:09.407Z,2.83
2017-11-23T12:46:37.708Z,3.00
2017-11-23T12:49:05.978Z,2.90
2017-11-23T12:51:34.241Z,2.40
2017-11-23T12:54:02.537Z,2.60
2017-11-23T12:56:30.905Z,2.90
2017-11-23T12:58:59.199Z,2.93
2017-11-23T13:01:27.475Z,2.77
2017-11-23T13:03:55.725Z,2.53
2017-11-23T13:06:24.026Z,3.30
2017-11-23T13:08:52.290Z,2.90
2017-11-23T13:11:20.564Z,2.93
2017-11-23T13:13:48.851Z,3.40
2017-11-23T13:16:17.124Z,2.53
2017-11-23T13:18:45.376Z,4.83
2017-11-23T13:21:13.696Z,3.27
2017-11-23T13:23:42.770Z,3.40
2017-11-23T13:26:11.125Z,3.90
2017-11-23T13:28:39.422Z,4.17
2017-11-23T13:31:07.717Z,3.43
2017-11-23T13:33:35.969Z,4.00
2017-11-23T13:36:04.342Z,2.47
2017-11-23T13:38:32.719Z,2.93
2017-11-23T13:41:00.997Z,3.00
2017-11-23T13:43:29.248Z,2.30
2017-11-23T13:45:57.537Z,2.97
2017-11-23T13:48:25.799Z,2.80
2017-11-23T13:50:54.073Z,2.50
2017-11-23T13:53:22.378Z,2.10
2017-11-23T13:55:50.748Z,2.63
2017-11-23T13:58:19.013Z,2.10
2017-11-23T14:00:47.307Z,2.20
2017-11-23T14:03:15.598Z,3.50
2017-11-23T14:05:45.377Z,3.00
2017-11-23T14:08:13.640Z,2.83
2017-11-23T14:10:41.925Z,2.33
2017-11-23T14:13:10.176Z,2.47
2017-11-23T14:15:38.464Z,2.50
2017-11-23T14:18:07.497Z,2.60
2017-11-23T14:20:35.766Z,3.30
2017-11-23T14:23:04.026Z,2.60
2017-11-23T14:25:32.297Z,2.40
2017-11-23T14:28:00.559Z,2.63
2017-11-23T14:30:29.592Z,2.43
2017-11-23T14:32:57.862Z,2.20
2017-11-23T14:35:26.158Z,2.80
2017-11-23T14:37:54.408Z,3.03
2017-11-23T14:40:22.693Z,2.40
2017-11-23T14:42:50.958Z,3.70
2017-11-23T14:45:19.237Z,2.60
2017-11-23T14:47:47.540Z,3.40
2017-11-23T14:50:15.910Z,2.33
2017-11-23T14:52:44.184Z,2.60
2017-11-23T14:55:12.576Z,2.90
2017-11-23T14:57:40.952Z,2.80
2017-11-23T15:00:09.203Z,3.60
2017-11-23T15:02:37.485Z,3.10
2017-11-23T15:05:05.760Z,3.13
2017-11-23T15:07:34.053Z,2.47
2017-11-23T15:10:02.314Z,2.60
2017-11-23T15:12:30.601Z,2.90
2017-11-23T15:14:58.857Z,3.17
2017-11-23T15:17:27.129Z,2.10
2017-11-23T15:19:55.393Z,2.73
2017-11-23T15:22:24.433Z,2.83
2017-11-23T15:24:52.687Z,2.57
2017-11-23T15:27:20.990Z,2.77
2017-11-23T15:29:49.263Z,2.47
2017-11-23T15:32:17.550Z,2.20
2017-11-23T15:34:45.802Z,2.77
2017-11-23T15:37:14.081Z,12.00
2017-11-23T15:39:42.352Z,2.50
2017-11-23T15:42:10.635Z,2.47
2017-11-23T15:44:38.934Z,2.53
2017-11-23T15:47:07.236Z,3.23
2017-11-23T15:49:35.515Z,2.80
2017-11-23T15:52:03.785Z,3.00
2017-11-23T15:54:32.053Z,2.90
2017-11-23T15:57:00.409Z,2.50
2017-11-23T15:59:28.705Z,3.17
2017-11-23T16:01:57.070Z,2.53
2017-11-23T16:04:25.341Z,2.90
2017-11-23T16:06:53.725Z,2.20
2017-11-23T16:09:22.010Z,3.20
2017-11-23T16:11:50.290Z,2.53
2017-11-23T16:14:18.543Z,3.27
2017-11-23T16:16:46.824Z,2.63
2017-11-23T16:19:15.078Z,3.57
2017-11-23T16:21:43.359Z,3.43
2017-11-23T16:24:11.644Z,2.80
2017-11-23T16:26:39.958Z,6.30
2017-11-23T16:29:08.205Z,2.37
2017-11-23T16:31:36.513Z,2.97
2017-11-23T16:34:04.770Z,3.17
2017-11-23T16:36:33.995Z,3.40
2017-11-23T16:39:07.641Z,2.77
2017-11-23T16:41:41.606Z,3.03
2017-11-23T16:44:15.485Z,3.40
2017-11-23T16:46:52.439Z,3.53
2017-11-23T16:49:26.252Z,3.20
2017-11-23T16:52:00.278Z,3.40
2017-11-23T16:54:34.291Z,3.30
2017-11-23T16:57:08.269Z,3.20
2017-11-23T17:02:57.565Z,3.63
2017-11-23T17:05:30.269Z,3.83
2017-11-23T17:08:04.213Z,3.70
2017-11-23T17:10:38.991Z,3.60
2017-11-23T17:13:12.939Z,2.90
2017-11-23T17:15:41.970Z,3.70
2017-11-23T17:18:16.777Z,3.40
2017-11-23T17:20:45.017Z,2.80
2017-11-23T17:23:13.290Z,3.60
2017-11-23T17:25:41.601Z,4.80
2017-11-23T17:28:09.882Z,3.63
2017-11-23T17:30:38.165Z,3.43
2017-11-23T17:33:06.442Z,4.50
2017-11-23T17:35:34.821Z,4.37
2017-11-23T17:38:03.298Z,4.50
2017-11-23T17:40:31.565Z,3.47
2017-11-23T17:42:59.947Z,3.67
2017-11-23T17:45:28.319Z,3.37
2017-11-23T17:47:56.586Z,3.80
2017-11-23T17:50:24.841Z,3.43
2017-11-23T17:52:53.903Z,3.80
2017-11-23T17:55:22.152Z,3.43
2017-11-23T17:57:50.422Z,4.37
2017-11-23T18:00:18.685Z,3.50
2017-11-23T18:02:47.025Z,3.80
2017-11-23T18:05:16.083Z,4.27
2017-11-23T18:07:44.346Z,3.30
2017-11-23T18:10:12.618Z,5.00
2017-11-23T18:12:40.905Z,3.87
2017-11-23T18:15:09.157Z,4.57
2017-11-23T18:17:37.437Z,3.93
2017-11-23T18:20:05.700Z,3.87
2017-11-23T18:22:34.741Z,3.93
2017-11-23T18:25:03.001Z,3.33
2017-11-23T18:27:31.264Z,3.53
2017-11-23T18:29:59.584Z,4.00
2017-11-23T18:32:27.849Z,4.10
2017-11-23T18:34:56.121Z,3.13
2017-11-23T18:37:24.393Z,3.50
2017-11-23T18:39:52.661Z,3.33
2017-11-23T18:42:20.929Z,3.90
2017-11-23T18:44:49.879Z,3.60
2017-11-23T18:47:18.133Z,3.50
2017-11-23T18:49:46.521Z,3.40
2017-11-23T18:52:14.897Z,4.20
2017-11-23T18:54:43.159Z,3.50
2017-11-23T18:57:11.431Z,3.83
2017-11-23T18:59:39.752Z,3.80
2017-11-23T19:02:09.050Z,4.27
2017-11-23T19:04:37.325Z,3.50
2017-11-23T19:07:05.579Z,3.40
2017-11-23T19:09:33.851Z,3.63
2017-11-23T19:12:02.111Z,4.50
2017-11-23T19:14:30.384Z,3.73
2017-11-23T19:16:58.635Z,3.27
2017-11-23T19:19:27.686Z,2.80
2017-11-23T19:21:55.948Z,3.80
2017-11-23T19:24:24.240Z,3.60
2017-11-23T19:26:52.523Z,12.17
2017-11-23T19:29:20.801Z,5.93
2017-11-23T19:31:49.057Z,3.87
2017-11-23T19:34:17.337Z,3.90
2017-11-23T19:36:45.596Z,3.93
2017-11-23T19:39:13.875Z,4.07
2017-11-23T19:41:43.566Z,4.53
2017-11-23T19:44:11.850Z,4.10
2017-11-23T19:46:40.114Z,3.30
2017-11-23T19:49:08.385Z,4.27
2017-11-23T19:51:36.685Z,5.47
2017-11-23T19:54:04.998Z,4.60
2017-11-23T19:56:33.258Z,3.93
2017-11-23T19:59:01.530Z,4.70
2017-11-23T20:01:29.942Z,4.07
2017-11-23T20:03:58.218Z,3.67
2017-11-23T20:06:26.488Z,3.90
2017-11-23T20:08:56.301Z,3.60
2017-11-23T20:11:24.662Z,4.03
2017-11-23T20:13:52.941Z,4.50
2017-11-23T20:16:21.239Z,3.77
2017-11-23T20:18:49.504Z,3.80
2017-11-23T20:21:17.875Z,4.37
2017-11-23T20:23:46.148Z,4.00
2017-11-23T20:26:14.426Z,3.90
2017-11-23T20:28:42.722Z,3.43
2017-11-23T20:31:10.984Z,5.33
2017-11-23T20:33:39.274Z,5.17
2017-11-23T20:36:07.525Z,4.03
2017-11-23T20:38:35.813Z,4.70
2017-11-23T20:41:04.086Z,4.30
2017-11-23T20:43:32.378Z,3.90
2017-11-23T20:46:00.751Z,5.40
2017-11-23T20:48:29.027Z,5.77
2017-11-23T20:50:57.309Z,3.80
2017-11-23T20:53:25.569Z,3.40
2017-11-23T20:55:53.831Z,3.97
2017-11-23T20:58:22.090Z,3.93
2017-11-23T21:00:50.400Z,3.70
2017-11-23T21:03:18.661Z,3.00
2017-11-23T21:05:46.945Z,3.00
2017-11-23T21:08:15.216Z,3.53
2017-11-23T21:10:43.496Z,3.60
2017-11-23T21:13:11.758Z,3.03
2017-11-23T21:15:40.036Z,3.67
2017-11-23T21:18:08.322Z,3.27
2017-11-23T21:20:36.628Z,3.60
2017-11-23T21:23:04.889Z,3.50
2017-11-23T21:25:33.163Z,4.23
2017-11-23T21:28:01.433Z,3.20
2017-11-23T21:30:29.745Z,3.43
2017-11-23T21:32:58.007Z,4.07
2017-11-23T21:35:26.279Z,3.10
2017-11-23T21:37:54.544Z,3.60
2017-11-23T21:40:22.825Z,4.10
2017-11-23T21:42:51.121Z,3.23
2017-11-23T21:45:19.493Z,3.57
2017-11-23T21:47:47.773Z,3.50
2017-11-23T21:50:16.063Z,3.85
2017-11-23T21:52:44.322Z,4.23
2017-11-23T21:55:12.593Z,4.13
2017-11-23T21:57:40.885Z,4.30
2017-11-23T22:00:09.224Z,3.47
2017-11-23T22:02:37.536Z,3.77
2017-11-23T22:05:05.819Z,5.50
2017-11-23T22:07:34.103Z,3.93
2017-11-23T22:10:02.370Z,3.00
2017-11-23T22:12:30.642Z,3.47
2017-11-23T22:14:58.960Z,3.40
2017-11-23T22:17:27.973Z,3.47
2017-11-23T22:19:56.304Z,3.70
2017-11-23T22:22:24.549Z,3.00
2017-11-23T22:24:52.821Z,3.47
2017-11-23T22:27:21.100Z,3.53
2017-11-23T22:29:49.394Z,3.73
2017-11-23T22:32:17.646Z,3.60
2017-11-23T22:34:45.954Z,3.80
2017-11-23T22:37:14.224Z,3.33
2017-11-23T22:39:42.597Z,2.93
2017-11-23T22:42:10.858Z,3.40
2017-11-23T22:44:39.164Z,3.10
2017-11-23T22:47:07.448Z,3.63
2017-11-23T22:49:35.925Z,3.80
2017-11-23T22:52:04.192Z,4.67
2017-11-23T22:54:33.193Z,4.07
2017-11-23T22:57:01.469Z,3.53
2017-11-23T22:59:29.725Z,4.27
2017-11-23T23:01:58.002Z,4.30
2017-11-23T23:04:26.253Z,3.73
2017-11-23T23:06:55.674Z,4.00
2017-11-23T23:09:23.999Z,4.20
2017-11-23T23:11:52.472Z,3.90
2017-11-23T23:14:20.720Z,2.93
2017-11-23T23:16:48.997Z,3.30
2017-11-23T23:19:17.253Z,3.40
2017-11-23T23:21:45.574Z,3.53
2017-11-23T23:24:13.845Z,3.67
2017-11-23T23:26:42.101Z,3.37
2017-11-23T23:29:10.353Z,3.03
2017-11-23T23:31:39.398Z,3.50
2017-11-23T23:34:07.654Z,3.73
2017-11-23T23:36:35.925Z,4.10
2017-11-23T23:39:04.186Z,3.27
2017-11-23T23:41:32.459Z,4.17
2017-11-23T23:44:00.718Z,4.40
2017-11-23T23:46:29.765Z,4.53
2017-11-23T23:48:58.019Z,5.03
2017-11-23T23:51:26.338Z,3.97
2017-11-23T23:53:54.597Z,4.00
2017-11-23T23:56:22.874Z,3.37
2017-11-23T23:58:51.149Z,3.90
